This is the latest recevied weather packets stored in our database for station/object DAX207-13. If no packets are shown the sender has not sent any weather packets the latest 10 day(s).
| Time | Temp. | Humidity | Pressure | Rain* | Wind** | Luminosity | Snow |
|---|---|---|---|---|---|---|---|
| 1788277224 | 19.44° C | 71% | 1020.3 hPa | 0 mm | - | 186 W/m² | - |
| 1788276624 | 18.89° C | 73% | 1020.4 hPa | 0 mm | - | 174 W/m² | - |
| 1788276024 | 18.89° C | 73% | 1020.4 hPa | 0 mm | - | 89 W/m² | - |
| 1788275424 | 18.89° C | 73% | 1020.4 hPa | 0 mm | - | 179 W/m² | - |
| 1788274824 | 18.33° C | 73% | 1020.2 hPa | 0 mm | - | 143 W/m² | - |
| 1788274224 | 18.33° C | 74% | 1020.3 hPa | 0 mm | - | 121 W/m² | - |
| 1788273624 | 18.33° C | 76% | 1020.5 hPa | 0 mm | - | 122 W/m² | - |
| 1788273024 | 18.33° C | 75% | 1020.4 hPa | 0 mm | - | 142 W/m² | - |
| 1788272424 | 18.33° C | 75% | 1020.4 hPa | 0 mm | - | 126 W/m² | - |
| 1788271824 | 18.33° C | 75% | 1020.3 hPa | 0 mm | - | 131 W/m² | - |
| 1788271224 | 18.33° C | 74% | 1020.3 hPa | 0 mm | - | 221 W/m² | - |
| 1788270624 | 18.89° C | 74% | 1020.4 hPa | 0 mm | - | 108 W/m² | - |
| 1788270024 | 20° C | 69% | 1020.3 hPa | 0 mm | - | 130 W/m² | - |
| 1788269424 | 20.56° C | 63% | 1020.3 hPa | 0 mm | - | 196 W/m² | - |
| 1788268824 | 21.11° C | 63% | 1020.4 hPa | 0 mm | - | 129 W/m² | - |
| 1788268224 | 21.11° C | 62% | 1020.2 hPa | 0 mm | - | 151 W/m² | - |
| 1788267024 | 22.22° C | 60% | 1020.2 hPa | 0 mm | - | 175 W/m² | - |
| 1788266424 | 21.67° C | 61% | 1020.4 hPa | 0 mm | - | 422 W/m² | - |
| 1788265824 | 21.67° C | 60% | 1020.3 hPa | 0 mm | - | 295 W/m² | - |
| 1788265224 | 21.67° C | 61% | 1020.3 hPa | 0 mm | - | 240 W/m² | - |
| 1788264624 | 21.67° C | 58% | 1020.2 hPa | 0 mm | - | 460 W/m² | - |
| 1788264024 | 20.56° C | 62% | 1020.2 hPa | 0 mm | - | 548 W/m² | - |
| 1788263424 | 20.56° C | 64% | 1020.1 hPa | 0 mm | - | 134 W/m² | - |
| 1788262824 | 20.56° C | 64% | 1020.3 hPa | 0 mm | - | 173 W/m² | - |
| 1788262224 | 21.11° C | 62% | 1020.2 hPa | 0 mm | - | 196 W/m² | - |
* Rain latest hour (hover to see other rain measurements)
** Current wind speed in m/s (hover to see current wind gust speed)